Whitehouse, Ohio
Current Conditions -  °F | °C
As of 5:24 PM on Sunday 25 Jan 2015 (Local Time) from KTOL Reporting Station
Light Snow Light Snow  
Wind Chill:   Ceiling: 3200
Heat Index: 19°   Visibility: 1.2mi
Dew Point: 14°   Wind: 22mph
Humidity: 80%   Direction: 60°ENE
Pressure: 29.89"   Gusts: 29mph
Location:  41.52°N, 83.8°W
Report Text: KTOL 252224Z 06019G25KT 1 1/4SM -SN OVC032 M07/M10 A2989 RMK AO2 P0000
Loading
Personal Weather Stations






























Interactive Weather Map New forecast layout! Learn more

10-Day Weather Forecast

Advertisements
Track Severe Weather on mobile